createdAt,value
2022-08-09T00:02:33.957Z,2.90
2022-08-09T00:06:16.585Z,3.15
2022-08-09T00:07:49.271Z,3.30
2022-08-09T00:10:24.367Z,3.53
2022-08-09T00:12:52.848Z,3.43
2022-08-09T00:15:26.551Z,3.65
2022-08-09T00:18:05.724Z,3.83
2022-08-09T00:20:41.450Z,3.30
2022-08-09T00:23:56.095Z,3.20
2022-08-09T00:26:04.886Z,3.00
2022-08-09T00:28:34.808Z,3.08
2022-08-09T00:31:30.587Z,3.53
2022-08-09T00:33:51.913Z,3.47
2022-08-09T00:36:29.534Z,3.10
2022-08-09T00:38:58.766Z,3.40
2022-08-09T00:44:09.935Z,3.58
2022-08-09T00:44:27.315Z,3.60
2022-08-09T00:47:04.547Z,3.40
2022-08-09T00:49:36.780Z,2.90
2022-08-09T00:52:06.221Z,3.03
2022-08-09T00:54:45.017Z,3.10
2022-08-09T00:57:12.631Z,3.22
2022-08-09T00:59:46.258Z,3.25
2022-08-09T01:02:23.322Z,3.42
2022-08-09T01:05:03.271Z,3.10
2022-08-09T01:08:00.167Z,3.47
2022-08-09T01:10:45.128Z,3.60
2022-08-09T01:13:22.110Z,3.67
2022-08-09T01:15:53.009Z,3.33
2022-08-09T01:18:30.401Z,3.67
2022-08-09T01:21:17.381Z,3.33
2022-08-09T01:24:03.495Z,3.80
2022-08-09T01:26:52.767Z,3.45
2022-08-09T01:29:28.637Z,3.72
2022-08-09T01:32:30.089Z,3.80
2022-08-09T01:35:07.027Z,3.50
2022-08-09T01:38:09.440Z,3.65
2022-08-09T01:40:44.006Z,3.90
2022-08-09T01:43:12.107Z,3.72
2022-08-09T01:45:46.124Z,3.60
2022-08-09T01:48:17.198Z,3.70
2022-08-09T01:50:55.028Z,3.80
2022-08-09T01:53:23.946Z,3.83
2022-08-09T01:55:57.353Z,3.80
2022-08-09T01:58:27.323Z,3.80
2022-08-09T02:00:58.030Z,3.80
2022-08-09T02:03:25.720Z,4.07
2022-08-09T02:06:04.124Z,3.40
2022-08-09T02:08:57.171Z,3.33
2022-08-09T02:11:42.834Z,3.57
2022-08-09T02:14:16.039Z,3.72
2022-08-09T02:17:14.698Z,3.83
2022-08-09T02:19:43.060Z,3.53
2022-08-09T02:22:38.143Z,3.80
2022-08-09T02:25:15.190Z,3.73
2022-08-09T02:28:00.458Z,3.50
2022-08-09T02:30:41.463Z,3.42
2022-08-09T02:33:14.109Z,3.67
2022-08-09T02:36:01.902Z,3.90
2022-08-09T02:38:35.386Z,3.50
2022-08-09T02:41:08.521Z,3.85
2022-08-09T02:43:53.936Z,3.70
2022-08-09T02:46:28.446Z,3.30
2022-08-09T02:49:01.115Z,3.72
2022-08-09T02:51:37.017Z,3.70
2022-08-09T02:54:13.987Z,3.97
2022-08-09T02:56:51.376Z,3.50
2022-08-09T02:59:26.574Z,4.18
2022-08-09T03:02:07.124Z,3.90
2022-08-09T03:04:41.961Z,4.20
2022-08-09T03:07:14.337Z,4.15
2022-08-09T03:09:54.454Z,4.32
2022-08-09T03:12:25.619Z,3.90
2022-08-09T03:14:53.852Z,3.97
2022-08-09T03:17:27.207Z,4.10
2022-08-09T03:20:05.041Z,3.80
2022-08-09T03:22:42.291Z,4.18
2022-08-09T03:25:26.933Z,4.70
2022-08-09T03:28:02.507Z,4.20
2022-08-09T03:30:33.958Z,4.17
2022-08-09T03:33:12.623Z,4.30
2022-08-09T03:36:12.760Z,4.50
2022-08-09T03:38:31.423Z,4.72
2022-08-09T03:40:58.464Z,4.25
2022-08-09T03:43:31.990Z,3.80
2022-08-09T03:46:04.546Z,3.97
2022-08-09T03:48:52.920Z,4.10
2022-08-09T03:51:55.032Z,3.58
2022-08-09T03:54:14.649Z,4.18
2022-08-09T03:56:42.409Z,4.60
2022-08-09T03:59:13.548Z,4.60
2022-08-09T04:01:45.598Z,4.30
2022-08-09T04:04:14.764Z,4.37
2022-08-09T04:06:48.685Z,3.90
2022-08-09T04:09:42.116Z,4.50
2022-08-09T04:12:11.859Z,4.53
2022-08-09T04:15:01.853Z,4.10
2022-08-09T04:17:42.438Z,4.45
2022-08-09T04:20:12.183Z,4.40
2022-08-09T04:22:41.299Z,4.30
2022-08-09T04:25:12.947Z,4.93
2022-08-09T04:27:48.874Z,4.55
2022-08-09T04:30:20.895Z,4.65
2022-08-09T04:32:50.949Z,4.37
2022-08-09T04:35:21.812Z,4.43
2022-08-09T04:37:49.793Z,4.03
2022-08-09T04:40:19.128Z,4.43
2022-08-09T04:42:48.399Z,4.47
2022-08-09T04:45:16.652Z,4.40
2022-08-09T04:48:01.032Z,4.00
2022-08-09T04:50:33.729Z,4.40
2022-08-09T04:53:13.010Z,4.07
2022-08-09T04:55:58.222Z,3.90
2022-08-09T04:58:27.587Z,3.92
2022-08-09T05:00:55.533Z,4.10
2022-08-09T05:03:40.932Z,4.03
2022-08-09T05:06:22.141Z,4.00
2022-08-09T05:08:59.883Z,3.70
2022-08-09T05:11:30.389Z,4.35
2022-08-09T05:13:59.707Z,3.67
2022-08-09T05:16:31.741Z,4.50
2022-08-09T05:19:00.205Z,4.12
2022-08-09T05:21:30.226Z,4.43
2022-08-09T05:24:02.065Z,3.78
2022-08-09T05:26:36.776Z,4.27
2022-08-09T05:29:17.597Z,3.70
2022-08-09T05:31:56.918Z,3.97
2022-08-09T05:34:31.081Z,3.80
2022-08-09T05:37:05.209Z,3.97
2022-08-09T05:39:42.658Z,3.53
2022-08-09T05:42:17.211Z,3.90
2022-08-09T05:44:58.389Z,3.92
2022-08-09T05:47:30.356Z,4.22
2022-08-09T05:50:26.693Z,3.55
2022-08-09T05:52:53.440Z,4.07
2022-08-09T05:55:23.465Z,3.55
2022-08-09T05:57:56.904Z,3.62
2022-08-09T06:00:30.177Z,3.60
2022-08-09T06:03:03.075Z,3.55
2022-08-09T06:05:57.169Z,3.97
2022-08-09T06:08:24.870Z,3.47
2022-08-09T06:10:53.903Z,3.80
2022-08-09T06:13:21.377Z,3.55
2022-08-09T06:15:51.490Z,3.62
2022-08-09T06:18:25.179Z,3.40
2022-08-09T06:20:57.783Z,3.45
2022-08-09T06:23:58.266Z,3.62
2022-08-09T06:26:20.398Z,3.33
2022-08-09T06:29:00.790Z,3.62
2022-08-09T06:31:40.315Z,3.20
2022-08-09T06:34:19.770Z,3.37
2022-08-09T06:36:49.292Z,3.80
2022-08-09T06:39:24.459Z,3.50
2022-08-09T06:42:11.582Z,3.83
2022-08-09T06:44:38.576Z,3.67
2022-08-09T06:47:05.607Z,4.20
2022-08-09T06:50:12.213Z,3.08
2022-08-09T06:52:29.356Z,3.50
2022-08-09T06:54:56.277Z,3.00
2022-08-09T06:57:42.400Z,3.20
2022-08-09T07:00:48.642Z,2.90
2022-08-09T07:02:59.052Z,3.17
2022-08-09T07:06:02.720Z,2.92
2022-08-09T07:08:13.255Z,3.10
2022-08-09T07:10:40.426Z,2.90
2022-08-09T07:13:27.417Z,4.25
2022-08-09T07:16:41.614Z,3.37
2022-08-09T07:18:41.266Z,5.37
2022-08-09T07:21:10.491Z,3.58
2022-08-09T07:23:46.764Z,3.77
2022-08-09T07:26:24.771Z,7.68
2022-08-09T07:29:09.328Z,4.50
2022-08-09T07:31:45.862Z,3.30
2022-08-09T07:34:20.163Z,3.10
2022-08-09T07:36:48.776Z,3.43
2022-08-09T07:39:19.827Z,3.30
2022-08-09T07:41:48.183Z,3.15
2022-08-09T07:44:15.168Z,3.25
2022-08-09T07:46:42.133Z,3.08
2022-08-09T07:49:15.204Z,3.37
2022-08-09T07:52:03.245Z,3.50
2022-08-09T07:54:31.618Z,3.03
2022-08-09T07:56:58.761Z,2.95
2022-08-09T07:59:45.956Z,3.78
2022-08-09T08:02:19.339Z,2.83
2022-08-09T08:04:48.903Z,3.33
2022-08-09T08:08:06.258Z,4.85
2022-08-09T08:10:08.262Z,3.60
2022-08-09T08:12:43.599Z,3.25
2022-08-09T08:15:17.932Z,3.63
2022-08-09T08:17:55.057Z,3.20
2022-08-09T08:20:30.541Z,3.35
2022-08-09T08:23:03.400Z,3.70
2022-08-09T08:25:44.720Z,3.03
2022-08-09T08:28:15.561Z,3.47
2022-08-09T08:30:46.742Z,3.12
2022-08-09T08:33:23.892Z,3.40
2022-08-09T08:35:59.662Z,3.15
2022-08-09T08:38:30.547Z,3.72
2022-08-09T08:40:58.987Z,2.80
2022-08-09T08:43:27.804Z,3.55
2022-08-09T08:46:03.822Z,2.97
2022-08-09T08:48:36.932Z,3.50
2022-08-09T08:51:05.100Z,3.10
2022-08-09T08:53:37.196Z,3.07
2022-08-09T08:56:07.013Z,2.92
2022-08-09T08:58:36.218Z,3.05
2022-08-09T09:01:08.720Z,3.17
2022-08-09T09:03:49.412Z,2.90
2022-08-09T09:06:19.575Z,3.15
2022-08-09T09:08:52.398Z,3.17
2022-08-09T09:11:20.864Z,3.00
2022-08-09T09:13:57.406Z,3.25
2022-08-09T09:16:30.494Z,3.37
2022-08-09T09:19:39.380Z,3.45
2022-08-09T09:22:26.857Z,3.10
2022-08-09T09:26:02.411Z,3.42
2022-08-09T09:28:06.557Z,3.30
2022-08-09T09:30:40.770Z,3.53
2022-08-09T09:33:16.751Z,3.63
2022-08-09T09:36:02.863Z,3.35
2022-08-09T09:39:09.808Z,3.35
2022-08-09T09:41:48.762Z,3.30
2022-08-09T09:44:25.392Z,3.47
2022-08-09T09:47:16.868Z,3.60
2022-08-09T09:50:14.553Z,3.12
2022-08-09T09:52:56.919Z,3.28
2022-08-09T09:55:31.938Z,3.53
2022-08-09T09:58:15.780Z,3.75
2022-08-09T10:00:54.425Z,3.50
2022-08-09T10:03:42.602Z,3.35
2022-08-09T10:06:12.443Z,3.58
2022-08-09T10:08:43.226Z,3.25
2022-08-09T10:12:01.445Z,3.00
2022-08-09T10:14:32.962Z,3.30
2022-08-09T10:17:39.853Z,3.37
2022-08-09T10:19:59.864Z,3.42
2022-08-09T10:22:36.647Z,2.95
2022-08-09T10:25:12.229Z,3.75
2022-08-09T10:27:56.954Z,3.47
2022-08-09T10:34:04.619Z,3.40
2022-08-09T10:36:09.651Z,3.20
2022-08-09T10:38:56.173Z,3.20
2022-08-09T10:41:25.198Z,3.10
2022-08-09T10:43:59.634Z,3.17
2022-08-09T10:46:55.031Z,3.40
2022-08-09T10:49:51.089Z,3.25
2022-08-09T10:52:21.623Z,3.00
2022-08-09T10:54:53.680Z,3.17
2022-08-09T10:57:23.391Z,3.28
2022-08-09T10:59:57.597Z,2.95
2022-08-09T11:03:27.528Z,2.90
2022-08-09T11:05:30.091Z,3.22
2022-08-09T11:08:43.816Z,2.70
2022-08-09T11:11:16.693Z,3.65
2022-08-09T11:13:54.046Z,3.47
2022-08-09T11:16:35.861Z,3.22
2022-08-09T11:19:10.503Z,3.00
2022-08-09T11:21:57.014Z,3.20
2022-08-09T11:25:08.892Z,3.90
2022-08-09T11:28:03.744Z,3.65
2022-08-09T11:30:38.033Z,3.67
2022-08-09T11:33:32.475Z,3.80
2022-08-09T11:36:01.092Z,3.50
2022-08-09T11:38:41.457Z,3.53
2022-08-09T11:41:13.117Z,3.17
2022-08-09T11:43:49.392Z,2.92
2022-08-09T11:46:33.125Z,3.30
2022-08-09T11:49:05.179Z,3.20
2022-08-09T11:53:02.395Z,3.55
2022-08-09T11:55:52.855Z,3.55
2022-08-09T11:58:14.869Z,3.50
2022-08-09T12:00:52.862Z,3.50
2022-08-09T12:03:55.215Z,3.13
2022-08-09T12:06:14.154Z,3.42
2022-08-09T12:08:53.812Z,3.35
2022-08-09T12:11:23.349Z,3.78
2022-08-09T12:14:09.379Z,3.40
2022-08-09T12:16:43.010Z,3.37
2022-08-09T12:19:12.379Z,3.45
2022-08-09T12:21:50.521Z,3.33
2022-08-09T12:24:24.358Z,3.40
2022-08-09T12:29:14.151Z,3.30
2022-08-09T12:30:01.758Z,3.03
2022-08-09T12:32:41.356Z,3.55
2022-08-09T12:35:12.529Z,3.28
2022-08-09T12:37:50.000Z,3.40
2022-08-09T12:40:21.285Z,3.65
2022-08-09T12:42:51.089Z,3.30
2022-08-09T12:45:33.484Z,3.47
2022-08-09T12:48:03.424Z,3.62
2022-08-09T12:50:31.115Z,3.45
2022-08-09T12:53:08.056Z,3.72
2022-08-09T12:56:15.739Z,3.40
2022-08-09T12:58:27.944Z,3.05
2022-08-09T13:00:55.794Z,3.40
2022-08-09T13:03:28.331Z,3.35
2022-08-09T13:06:34.638Z,3.35
2022-08-09T13:09:13.543Z,3.43
2022-08-09T13:11:48.883Z,3.40
2022-08-09T13:14:43.787Z,4.53
2022-08-09T13:17:16.038Z,4.90
2022-08-09T13:20:08.554Z,3.17
2022-08-09T13:23:00.271Z,3.85
2022-08-09T13:25:42.739Z,4.87
2022-08-09T13:28:18.931Z,4.65
2022-08-09T13:32:14.965Z,6.87
2022-08-09T13:33:58.714Z,5.50
2022-08-09T13:36:40.510Z,3.40
2022-08-09T13:41:46.980Z,7.78
2022-08-09T13:42:03.552Z,4.87
2022-08-09T13:44:31.664Z,3.70
2022-08-09T13:47:29.586Z,3.42
2022-08-09T13:49:56.543Z,3.30
2022-08-09T13:52:29.403Z,3.10
2022-08-09T13:54:59.936Z,3.53
2022-08-09T13:57:37.498Z,3.62
2022-08-09T14:00:19.360Z,3.58
2022-08-09T14:03:02.268Z,2.80
2022-08-09T14:05:57.065Z,3.08
2022-08-09T14:08:19.441Z,2.55
2022-08-09T14:10:51.946Z,2.80
2022-08-09T14:14:15.449Z,2.70
2022-08-09T14:16:13.871Z,2.73
2022-08-09T14:18:45.964Z,2.95
2022-08-09T14:21:22.549Z,2.97
2022-08-09T14:23:56.629Z,2.80
2022-08-09T14:26:30.476Z,2.85
2022-08-09T14:29:08.302Z,2.90
2022-08-09T14:31:53.428Z,2.60
2022-08-09T14:34:30.855Z,2.80
2022-08-09T14:37:07.708Z,2.50
2022-08-09T14:39:40.349Z,3.10
2022-08-09T14:42:31.102Z,2.70
2022-08-09T14:45:14.794Z,2.87
2022-08-09T14:47:57.494Z,3.20
2022-08-09T14:50:30.346Z,2.83
2022-08-09T14:52:58.210Z,3.30
2022-08-09T14:55:25.288Z,3.17
2022-08-09T14:57:56.469Z,3.08
2022-08-09T15:00:24.655Z,3.45
2022-08-09T15:02:53.949Z,3.50
2022-08-09T15:05:20.889Z,2.92
2022-08-09T15:07:56.124Z,3.40
2022-08-09T15:10:27.937Z,3.37
2022-08-09T15:12:55.940Z,3.00
2022-08-09T15:15:24.143Z,3.30
2022-08-09T15:17:53.280Z,3.15
2022-08-09T15:21:56.134Z,2.90
2022-08-09T15:24:01.983Z,3.10
2022-08-09T15:25:58.382Z,3.03
2022-08-09T15:28:27.727Z,2.65
2022-08-09T15:31:10.012Z,2.72
2022-08-09T15:34:27.418Z,2.83
2022-08-09T15:36:30.346Z,2.80
2022-08-09T15:39:00.691Z,2.62
2022-08-09T15:41:31.354Z,2.90
2022-08-09T15:44:03.663Z,2.62
2022-08-09T15:46:34.143Z,3.00
2022-08-09T15:49:21.968Z,2.78
2022-08-09T15:52:03.264Z,2.50
2022-08-09T15:54:46.323Z,2.33
2022-08-09T15:57:18.939Z,2.60
2022-08-09T16:00:01.060Z,2.43
2022-08-09T16:02:27.951Z,2.75
2022-08-09T16:04:54.796Z,2.60
2022-08-09T16:07:21.707Z,2.62
2022-08-09T16:10:02.558Z,2.70
2022-08-09T16:12:33.290Z,2.83
2022-08-09T16:15:01.401Z,2.53
2022-08-09T16:17:28.648Z,2.58
2022-08-09T16:20:04.457Z,2.70
2022-08-09T16:22:32.978Z,2.30
2022-08-09T16:25:01.531Z,2.50
2022-08-09T16:27:29.803Z,2.37
2022-08-09T16:30:01.114Z,2.42
2022-08-09T16:32:53.255Z,2.50
2022-08-09T16:35:56.925Z,2.70
2022-08-09T16:38:09.515Z,2.60
2022-08-09T16:40:40.838Z,2.12
2022-08-09T16:43:08.836Z,2.30
2022-08-09T16:45:37.273Z,2.50
2022-08-09T16:48:42.505Z,2.37
2022-08-09T16:51:07.490Z,2.40
2022-08-09T16:53:36.758Z,2.28
2022-08-09T16:56:10.101Z,2.40
2022-08-09T16:58:39.526Z,2.10
2022-08-09T17:01:09.857Z,2.60
2022-08-09T17:03:37.478Z,2.43
2022-08-09T17:06:28.208Z,2.28
2022-08-09T17:09:00.171Z,2.62
2022-08-09T17:11:41.825Z,2.30
2022-08-09T17:14:25.961Z,2.28
2022-08-09T17:16:54.311Z,2.20
2022-08-09T17:19:21.649Z,2.60
2022-08-09T17:21:54.494Z,2.30
2022-08-09T17:24:30.696Z,2.58
2022-08-09T17:26:58.457Z,2.40
2022-08-09T17:29:31.894Z,2.73
2022-08-09T17:32:05.298Z,2.40
2022-08-09T17:34:59.761Z,2.80
2022-08-09T17:37:21.147Z,2.30
2022-08-09T17:39:53.651Z,2.22
2022-08-09T17:42:41.317Z,2.60
2022-08-09T17:45:23.661Z,2.87
2022-08-09T17:48:02.795Z,2.60
2022-08-09T17:50:37.188Z,2.37
2022-08-09T17:53:19.218Z,2.40
2022-08-09T17:55:51.966Z,1.97
2022-08-09T17:58:27.004Z,2.03
2022-08-09T18:00:56.521Z,1.92
2022-08-09T18:03:26.299Z,2.17
2022-08-09T18:05:57.187Z,1.87
2022-08-09T18:08:27.699Z,1.87
2022-08-09T18:11:01.600Z,1.65
2022-08-09T18:13:43.682Z,1.85
2022-08-09T18:16:29.263Z,1.70
2022-08-09T18:19:03.877Z,1.48
2022-08-09T18:21:41.264Z,1.50
2022-08-09T18:24:14.578Z,1.87
2022-08-09T18:26:47.011Z,1.42
2022-08-09T18:30:38.670Z,1.80
2022-08-09T18:32:07.405Z,1.85
2022-08-09T18:34:39.278Z,1.60
2022-08-09T18:37:10.200Z,1.62
2022-08-09T18:39:55.124Z,1.50
2022-08-09T18:42:29.499Z,1.73
2022-08-09T18:44:57.127Z,1.40
2022-08-09T18:47:32.722Z,1.73
2022-08-09T18:50:10.038Z,1.40
2022-08-09T18:52:41.396Z,1.25
2022-08-09T18:55:13.729Z,1.05
2022-08-09T18:57:43.531Z,1.25
2022-08-09T19:00:19.189Z,1.10
2022-08-09T19:02:50.998Z,0.90
2022-08-09T19:05:41.458Z,1.10
2022-08-09T19:08:10.577Z,1.40
2022-08-09T19:10:41.309Z,1.27
2022-08-09T19:13:20.388Z,1.30
2022-08-09T19:15:58.679Z,0.90
2022-08-09T19:18:33.903Z,1.27
2022-08-09T19:21:09.226Z,1.00
2022-08-09T19:24:37.015Z,1.27
2022-08-09T19:26:32.412Z,1.27
2022-08-09T19:29:09.735Z,1.17
2022-08-09T19:31:44.112Z,1.20
2022-08-09T19:34:22.062Z,1.10
2022-08-09T19:36:55.845Z,1.00
2022-08-09T19:39:43.028Z,1.30
2022-08-09T19:42:15.059Z,0.95
2022-08-09T19:44:50.624Z,0.90
2022-08-09T19:47:22.595Z,0.90
2022-08-09T19:50:09.569Z,1.12
2022-08-09T19:52:49.638Z,1.00
2022-08-09T19:55:25.861Z,0.98
2022-08-09T19:57:57.961Z,0.90
2022-08-09T20:00:24.973Z,0.90
2022-08-09T20:04:26.332Z,0.80
2022-08-09T20:05:46.502Z,1.00
2022-08-09T20:08:33.349Z,0.98
2022-08-09T20:11:04.353Z,1.20
2022-08-09T20:13:32.424Z,0.90
2022-08-09T20:16:34.714Z,1.25
2022-08-09T20:19:42.420Z,1.30
2022-08-09T20:21:56.319Z,1.20
2022-08-09T20:24:29.655Z,1.48
2022-08-09T20:27:02.959Z,1.05
2022-08-09T20:29:39.261Z,0.90
2022-08-09T20:32:33.277Z,0.90
2022-08-09T20:34:55.497Z,0.90
2022-08-09T20:37:22.872Z,0.90
2022-08-09T20:40:15.716Z,0.90
2022-08-09T20:42:38.312Z,0.80
2022-08-09T20:45:59.071Z,0.77
2022-08-09T20:47:55.108Z,1.10
2022-08-09T20:50:47.527Z,1.00
2022-08-09T20:53:34.972Z,0.98
2022-08-09T20:56:00.628Z,0.95
2022-08-09T20:58:32.342Z,0.97
2022-08-09T21:01:33.438Z,0.95
2022-08-09T21:04:08.078Z,1.00
2022-08-09T21:06:41.397Z,1.10
2022-08-09T21:09:13.399Z,1.00
2022-08-09T21:14:30.942Z,1.00
2022-08-09T21:16:59.481Z,1.05
2022-08-09T21:20:17.646Z,0.80
2022-08-09T21:22:36.138Z,1.10
2022-08-09T21:25:20.885Z,0.90
2022-08-09T21:27:51.833Z,1.00
2022-08-09T21:30:22.349Z,1.00
2022-08-09T21:32:50.726Z,1.10
2022-08-09T21:35:17.844Z,0.80
2022-08-09T21:37:59.240Z,1.00
2022-08-09T21:40:30.295Z,1.10
2022-08-09T21:43:01.715Z,1.17
2022-08-09T21:45:28.607Z,0.88
2022-08-09T21:47:58.280Z,0.90
2022-08-09T21:50:38.487Z,0.90
2022-08-09T21:53:24.069Z,1.00
2022-08-09T21:55:54.810Z,0.80
2022-08-09T21:58:31.172Z,0.80
2022-08-09T22:00:58.254Z,0.85
2022-08-09T22:03:26.096Z,1.10
2022-08-09T22:05:54.063Z,1.05
2022-08-09T22:08:24.494Z,0.95
2022-08-09T22:11:00.669Z,1.00
2022-08-09T22:13:42.343Z,1.00
2022-08-09T22:16:11.073Z,0.80
2022-08-09T22:18:53.306Z,1.08
2022-08-09T22:21:45.065Z,1.30
2022-08-09T22:24:17.103Z,0.98
2022-08-09T22:26:51.463Z,1.00
2022-08-09T22:29:26.871Z,1.20
2022-08-09T22:31:59.591Z,1.02
2022-08-09T22:34:27.331Z,0.90
2022-08-09T22:36:55.738Z,0.98
2022-08-09T22:39:56.217Z,1.10
2022-08-09T22:42:22.609Z,1.20
2022-08-09T22:45:02.244Z,1.00
2022-08-09T22:48:11.733Z,0.95
2022-08-09T22:50:28.031Z,1.00
2022-08-09T22:52:57.831Z,0.98
2022-08-09T22:55:39.756Z,1.00
2022-08-09T22:58:30.928Z,1.02
2022-08-09T23:01:02.061Z,1.08
2022-08-09T23:04:02.516Z,0.90
2022-08-09T23:06:35.714Z,1.02
2022-08-09T23:09:07.060Z,0.90
2022-08-09T23:11:34.217Z,1.20
2022-08-09T23:14:03.008Z,1.23
2022-08-09T23:16:30.036Z,1.00
2022-08-09T23:18:57.004Z,1.00
2022-08-09T23:21:27.697Z,1.13
2022-08-09T23:24:06.326Z,1.02
2022-08-09T23:26:38.158Z,1.17
2022-08-09T23:29:06.435Z,1.17
2022-08-09T23:31:33.555Z,1.10
2022-08-09T23:34:00.477Z,1.00
2022-08-09T23:36:27.608Z,0.70
2022-08-09T23:38:54.438Z,1.23
2022-08-09T23:41:27.451Z,1.10
2022-08-09T23:44:01.098Z,0.98
2022-08-09T23:46:29.308Z,1.20
2022-08-09T23:48:56.790Z,1.00
2022-08-09T23:51:23.725Z,0.95
2022-08-09T23:53:52.587Z,1.00
2022-08-09T23:56:52.119Z,0.82
2022-08-09T23:59:09.315Z,1.00
